Time;durP1;ratioP1;P1;durP2;ratioP2;P2;SDS_P1;SDS_P2;PMS_P1;PMS_P2;Temp;Humidity;BMP_temperature;BMP_pressure;BME280_temperature;BME280_humidity;BME280_pressure;Samples;Min_cycle;Max_cycle;Signal;HPM_P1;HPM_P2
2022/05/25 00:01:21;;;;;;;10.73;7.00;;;10.80;99.90;;;;;;4796243;29;20051;-76
2022/05/25 00:03:47;;;;;;;6.77;6.13;;;10.80;99.90;;;;;;4772990;29;20080;-76
2022/05/25 00:06:13;;;;;;;7.77;6.20;;;10.70;99.90;;;;;;4762795;29;20480;-76
2022/05/25 00:08:40;;;;;;;9.27;6.83;;;10.70;99.90;;;;;;4786814;29;20050;-76
2022/05/25 00:11:07;;;;;;;8.27;7.33;;;10.70;99.90;;;;;;4783978;29;20057;-75
2022/05/25 00:13:34;;;;;;;9.43;7.00;;;10.70;99.90;;;;;;4766994;29;20049;-76
2022/05/25 00:16:00;;;;;;;8.30;6.93;;;10.60;99.90;;;;;;4801881;29;20051;-75
2022/05/25 00:18:26;;;;;;;10.50;8.23;;;10.60;99.90;;;;;;4791301;29;20047;-76
2022/05/25 00:20:52;;;;;;;8.03;7.23;;;10.60;99.90;;;;;;4769855;30;20138;-75
2022/05/25 00:23:18;;;;;;;9.43;7.60;;;10.60;99.90;;;;;;4774519;29;20124;-75
2022/05/25 00:25:44;;;;;;;9.30;8.30;;;10.50;99.90;;;;;;4779187;29;20043;-76
2022/05/25 00:28:13;;;;;;;10.00;8.37;;;10.60;99.90;;;;;;4782797;29;20055;-74
2022/05/25 00:30:41;;;;;;;9.60;8.00;;;10.60;99.90;;;;;;4794583;29;20047;-76
2022/05/25 00:33:07;;;;;;;11.87;8.87;;;10.60;99.90;;;;;;4758612;30;20059;-76
2022/05/25 00:35:35;;;;;;;11.17;8.87;;;10.60;99.90;;;;;;4775877;29;20530;-76
2022/05/25 00:38:02;;;;;;;10.80;9.70;;;10.50;99.90;;;;;;4799513;29;20096;-76
2022/05/25 00:40:33;;;;;;;12.10;9.50;;;10.60;99.90;;;;;;4775091;29;20128;-76
2022/05/25 00:42:58;;;;;;;8.80;7.90;;;10.60;99.90;;;;;;4795349;29;20465;-76
2022/05/25 00:45:24;;;;;;;11.93;7.90;;;10.50;99.90;;;;;;4765021;29;20137;-76
2022/05/25 00:47:51;;;;;;;9.67;8.60;;;10.50;99.90;;;;;;4790469;29;20047;-76
2022/05/25 00:50:20;;;;;;;10.37;9.37;;;10.50;99.90;;;;;;4796650;29;20631;-76
2022/05/25 00:52:48;;;;;;;10.73;9.63;;;10.40;99.90;;;;;;4797761;29;20175;-76
2022/05/25 00:55:27;;;;;;;11.30;10.17;;;10.40;99.90;;;;;;4767464;29;20051;-76
2022/05/25 00:57:56;;;;;;;11.60;9.93;;;10.40;99.90;;;;;;4772385;30;20058;-76
2022/05/25 01:00:25;;;;;;;11.93;9.67;;;10.40;99.90;;;;;;4779995;29;20055;-76
2022/05/25 01:03:00;;;;;;;11.77;10.43;;;10.40;99.90;;;;;;4790266;29;20054;-76
2022/05/25 01:05:34;;;;;;;12.17;10.57;;;10.40;99.90;;;;;;4781664;30;20229;-76
2022/05/25 01:08:25;;;;;;;12.10;10.00;;;10.40;99.90;;;;;;4776534;30;20066;-76
2022/05/25 01:11:14;;;;;;;13.50;10.87;;;10.40;99.90;;;;;;4777715;29;20082;-76
2022/05/25 01:13:48;;;;;;;12.77;10.23;;;10.40;99.90;;;;;;4783764;29;20047;-76
2022/05/25 01:16:39;;;;;;;10.97;9.70;;;10.30;99.90;;;;;;4789227;29;20552;-76
2022/05/25 01:19:34;;;;;;;11.33;10.13;;;10.30;99.90;;;;;;4778899;29;20081;-76
2022/05/25 01:22:05;;;;;;;10.73;9.63;;;10.20;99.90;;;;;;4793954;29;20062;-76
2022/05/25 01:24:42;;;;;;;13.60;10.60;;;10.20;99.90;;;;;;4787789;29;20058;-76
2022/05/25 01:27:27;;;;;;;13.07;10.57;;;10.20;99.90;;;;;;4784769;29;20062;-76
2022/05/25 01:30:05;;;;;;;17.77;10.67;;;10.10;99.90;;;;;;4792656;29;20050;-76
2022/05/25 01:32:46;;;;;;;13.60;11.03;;;10.10;99.90;;;;;;4788713;29;20051;-76
2022/05/25 01:35:30;;;;;;;13.00;9.83;;;10.10;99.90;;;;;;4793548;29;20074;-76
2022/05/25 01:38:04;;;;;;;13.67;10.17;;;10.10;99.90;;;;;;4784348;29;20050;-76
2022/05/25 01:41:18;;;;;;;11.03;9.83;;;10.10;99.90;;;;;;4801921;29;20054;-76
2022/05/25 01:44:07;;;;;;;12.00;10.10;;;10.10;99.90;;;;;;4793411;29;20065;-76
2022/05/25 01:46:44;;;;;;;13.03;9.80;;;10.10;99.90;;;;;;4804615;29;20050;-75
2022/05/25 01:49:20;;;;;;;13.63;9.17;;;10.10;99.90;;;;;;4772795;30;20053;-76
2022/05/25 01:52:03;;;;;;;12.67;9.53;;;10.10;99.90;;;;;;4782481;29;20050;-75
2022/05/25 01:54:32;;;;;;;11.40;9.83;;;10.10;99.90;;;;;;4804734;29;20061;-76
2022/05/25 01:57:03;;;;;;;11.00;9.57;;;10.10;99.90;;;;;;4827532;29;20187;-76
2022/05/25 01:59:29;;;;;;;14.03;10.10;;;10.00;99.90;;;;;;4810753;29;20073;-76
2022/05/25 02:04:44;;;;;;;13.03;10.03;;;10.00;99.90;;;;;;4815369;29;20087;-76
2022/05/25 02:07:18;;;;;;;10.97;9.87;;;10.00;99.90;;;;;;4805026;29;20061;-76
2022/05/25 02:10:14;;;;;;;11.80;9.73;;;10.00;99.90;;;;;;4787571;29;20053;-76
2022/05/25 02:12:58;;;;;;;11.93;9.20;;;10.00;99.90;;;;;;4772739;29;20076;-76
2022/05/25 02:15:30;;;;;;;11.67;9.23;;;10.00;99.90;;;;;;4795846;29;20058;-76
2022/05/25 02:18:21;;;;;;;12.00;9.77;;;10.00;99.90;;;;;;4793188;29;20055;-75
2022/05/25 02:21:28;;;;;;;11.03;9.83;;;10.00;99.90;;;;;;4810590;29;20103;-75
2022/05/25 02:24:02;;;;;;;13.03;9.80;;;10.00;99.90;;;;;;4787916;29;20061;-75
2022/05/25 02:26:33;;;;;;;11.70;10.50;;;10.00;99.90;;;;;;4793487;29;20046;-76
2022/05/25 02:29:10;;;;;;;12.80;10.13;;;10.00;99.90;;;;;;4804763;29;20038;-74
2022/05/25 02:31:44;;;;;;;12.83;9.60;;;10.00;99.90;;;;;;4791787;29;20051;-75
2022/05/25 02:34:15;;;;;;;12.80;9.87;;;10.00;99.90;;;;;;4790695;29;20058;-76
2022/05/25 02:36:42;;;;;;;11.50;10.18;;;9.90;99.90;;;;;;4783372;29;20055;-76
2022/05/25 02:39:10;;;;;;;13.83;10.60;;;9.90;99.90;;;;;;4816075;29;20088;-76
2022/05/25 02:41:49;;;;;;;12.03;10.07;;;9.90;99.90;;;;;;4794127;29;20056;-76
2022/05/25 02:44:15;;;;;;;14.47;10.17;;;9.90;99.90;;;;;;4820078;29;20065;-76
2022/05/25 02:46:40;;;;;;;13.47;10.43;;;9.90;99.90;;;;;;4779797;29;20090;-76
2022/05/25 02:49:07;;;;;;;12.67;10.00;;;9.90;99.90;;;;;;4800431;29;20091;-76
2022/05/25 02:51:33;;;;;;;14.07;11.30;;;9.90;99.90;;;;;;4801832;29;20054;-77
2022/05/25 02:53:59;;;;;;;13.47;10.80;;;9.90;99.90;;;;;;4774561;29;20082;-76
2022/05/25 02:56:25;;;;;;;14.87;11.07;;;9.80;99.90;;;;;;4793880;29;20074;-77
2022/05/25 02:58:50;;;;;;;14.30;10.93;;;9.80;99.90;;;;;;4802226;29;20057;-76
2022/05/25 03:01:16;;;;;;;15.20;11.60;;;9.80;99.90;;;;;;4774890;29;20075;-77
2022/05/25 03:03:42;;;;;;;15.73;11.50;;;9.80;99.90;;;;;;4804282;29;20047;-76
2022/05/25 03:06:08;;;;;;;13.97;10.70;;;9.80;99.90;;;;;;4808642;29;20055;-76
2022/05/25 03:08:35;;;;;;;14.03;10.40;;;9.80;99.90;;;;;;4784652;29;20043;-77
2022/05/25 03:11:03;;;;;;;16.13;11.13;;;9.80;99.90;;;;;;4791284;29;20074;-77
2022/05/25 03:13:29;;;;;;;15.43;11.33;;;9.80;99.90;;;;;;4789917;30;20051;-77
2022/05/25 03:16:00;;;;;;;14.87;10.93;;;9.80;99.90;;;;;;4789715;29;20083;-76
2022/05/25 03:18:26;;;;;;;19.10;11.47;;;9.80;99.90;;;;;;4801222;29;20115;-77
2022/05/25 03:20:52;;;;;;;15.60;12.20;;;9.80;99.90;;;;;;4803187;29;20046;-76
2022/05/25 03:23:18;;;;;;;18.27;12.70;;;9.80;99.90;;;;;;4769819;29;20080;-76
2022/05/25 03:25:47;;;;;;;20.90;12.97;;;9.70;99.90;;;;;;4774304;29;20062;-76
2022/05/25 03:28:14;;;;;;;19.03;12.90;;;9.80;99.90;;;;;;4786393;29;20062;-77
2022/05/25 03:30:42;;;;;;;18.03;13.27;;;9.80;99.90;;;;;;4800293;29;20054;-76
2022/05/25 03:33:08;;;;;;;18.10;13.10;;;9.80;99.90;;;;;;4796691;29;20058;-77
2022/05/25 03:35:34;;;;;;;17.60;12.20;;;9.80;99.90;;;;;;4769732;29;20747;-77
2022/05/25 03:38:01;;;;;;;16.23;11.90;;;9.80;99.90;;;;;;4787542;29;20062;-77
2022/05/25 03:40:27;;;;;;;18.03;12.37;;;9.80;99.90;;;;;;4781931;29;20584;-78
2022/05/25 03:42:53;;;;;;;18.13;13.63;;;9.80;99.90;;;;;;4816195;29;20050;-77
2022/05/25 03:45:19;;;;;;;18.10;12.93;;;9.80;99.90;;;;;;4791256;29;20054;-76
2022/05/25 03:47:45;;;;;;;19.07;12.80;;;9.80;99.90;;;;;;4799282;29;20047;-76
2022/05/25 03:50:11;;;;;;;18.90;13.27;;;9.80;99.90;;;;;;4798466;29;20054;-76
2022/05/25 03:52:38;;;;;;;19.97;13.33;;;9.80;99.90;;;;;;4795517;29;20059;-76
2022/05/25 03:55:04;;;;;;;16.67;12.27;;;9.90;99.90;;;;;;4816291;29;20476;-76
2022/05/25 03:57:31;;;;;;;16.50;11.77;;;9.80;99.90;;;;;;4804587;29;20069;-76
2022/05/25 03:59:56;;;;;;;16.83;12.50;;;9.90;99.90;;;;;;4794539;29;20054;-75
2022/05/25 04:02:22;;;;;;;18.17;13.00;;;9.90;99.90;;;;;;4819390;29;20058;-76
2022/05/25 04:05:07;;;;;;;20.77;12.57;;;9.80;99.90;;;;;;4795251;29;20058;-76
2022/05/25 04:07:36;;;;;;;16.57;12.90;;;9.80;99.90;;;;;;4794590;29;20112;-78
2022/05/25 04:10:03;;;;;;;21.27;13.73;;;9.80;99.90;;;;;;4790639;29;20068;-76
2022/05/25 04:12:30;;;;;;;17.87;13.10;;;9.90;99.90;;;;;;4759474;29;20057;-76
2022/05/25 04:14:55;;;;;;;21.07;13.40;;;9.90;99.90;;;;;;4762946;29;20061;-76
2022/05/25 04:17:21;;;;;;;18.57;13.43;;;9.90;99.90;;;;;;4788555;29;20105;-76
2022/05/25 04:19:47;;;;;;;20.03;13.20;;;9.90;99.90;;;;;;4784722;29;20175;-76
2022/05/25 04:22:12;;;;;;;19.90;14.23;;;9.90;99.90;;;;;;4784339;29;20063;-76
2022/05/25 04:24:38;;;;;;;17.43;13.63;;;9.90;99.90;;;;;;4803684;29;20050;-76
2022/05/25 04:27:04;;;;;;;19.20;14.07;;;9.90;99.90;;;;;;4788374;29;20437;-78
2022/05/25 04:29:29;;;;;;;18.93;13.83;;;9.90;99.90;;;;;;4785691;29;20042;-76
2022/05/25 04:31:55;;;;;;;18.07;13.57;;;9.90;99.90;;;;;;4772715;29;20050;-73
2022/05/25 04:34:21;;;;;;;18.90;14.97;;;10.00;99.90;;;;;;4781642;29;20078;-73
2022/05/25 04:36:46;;;;;;;17.27;13.83;;;10.00;99.90;;;;;;4778185;30;20043;-72
2022/05/25 04:39:12;;;;;;;20.37;14.87;;;10.10;99.90;;;;;;4762848;29;20059;-72
2022/05/25 04:41:38;;;;;;;22.60;14.80;;;10.10;99.90;;;;;;4810095;29;20997;-72
2022/05/25 04:44:04;;;;;;;20.37;13.90;;;10.10;99.90;;;;;;4774571;29;20062;-72
2022/05/25 04:46:30;;;;;;;18.53;14.43;;;10.20;99.90;;;;;;4792226;29;20046;-72
2022/05/25 04:48:57;;;;;;;20.53;15.07;;;10.20;99.90;;;;;;4795283;29;20058;-72
2022/05/25 04:51:22;;;;;;;18.77;14.30;;;10.20;99.90;;;;;;4780054;29;20042;-72
2022/05/25 04:53:49;;;;;;;19.40;13.77;;;10.30;99.90;;;;;;4800633;29;20169;-79
2022/05/25 04:58:59;;;;;;;18.73;14.50;;;10.40;99.90;;;;;;4778083;29;20050;-78
2022/05/25 05:01:25;;;;;;;19.27;14.23;;;10.40;99.90;;;;;;4805702;29;20070;-78
2022/05/25 05:03:51;;;;;;;20.60;15.03;;;10.50;99.90;;;;;;4806538;29;20065;-79
2022/05/25 05:06:17;;;;;;;21.57;14.97;;;10.50;99.90;;;;;;4762292;29;20637;-79
2022/05/25 05:08:43;;;;;;;21.07;15.83;;;10.60;99.90;;;;;;4780136;29;20046;-79
2022/05/25 05:11:14;;;;;;;21.83;15.03;;;10.60;99.90;;;;;;4781011;29;20050;-81
2022/05/25 05:13:39;;;;;;;26.30;15.27;;;10.70;99.90;;;;;;4809877;29;20485;-80
2022/05/25 05:16:09;;;;;;;20.60;14.33;;;10.80;99.90;;;;;;4780547;29;20081;-79
2022/05/25 05:18:34;;;;;;;20.40;14.43;;;10.80;99.90;;;;;;4795656;29;20047;-79
2022/05/25 05:21:00;;;;;;;19.17;14.83;;;10.90;99.90;;;;;;4806377;29;20347;-77
2022/05/25 05:23:26;;;;;;;23.33;14.93;;;10.90;99.90;;;;;;4795157;29;20802;-77
2022/05/25 05:25:52;;;;;;;23.07;15.23;;;11.00;99.90;;;;;;4803865;29;20062;-78
2022/05/25 05:28:21;;;;;;;20.53;13.70;;;11.10;99.90;;;;;;4785894;29;20171;-78
2022/05/25 05:30:55;;;;;;;19.57;13.77;;;11.10;99.90;;;;;;4807194;29;20617;-78
2022/05/25 05:33:22;;;;;;;20.37;14.13;;;11.30;99.90;;;;;;4800276;29;20043;-78
2022/05/25 05:35:59;;;;;;;20.03;13.30;;;11.30;99.90;;;;;;4802671;29;20058;-79
2022/05/25 05:38:25;;;;;;;22.57;13.57;;;11.50;99.90;;;;;;4795325;29;20047;-79
2022/05/25 05:40:52;;;;;;;19.27;13.67;;;11.60;99.90;;;;;;4785579;29;20589;-78
2022/05/25 05:43:19;;;;;;;19.70;14.20;;;11.70;99.90;;;;;;4798434;29;20145;-78
2022/05/25 05:45:45;;;;;;;19.13;12.37;;;11.80;99.90;;;;;;4807923;29;20054;-79
2022/05/25 05:48:15;;;;;;;19.17;13.80;;;11.90;99.90;;;;;;4794581;29;20517;-79
2022/05/25 05:50:42;;;;;;;17.30;12.10;;;12.10;99.90;;;;;;4804869;29;20086;-78
2022/05/25 05:53:11;;;;;;;18.23;13.10;;;12.20;99.90;;;;;;4817793;29;20061;-79
2022/05/25 05:55:38;;;;;;;19.50;12.77;;;12.40;99.90;;;;;;4786591;29;20075;-79
2022/05/25 05:58:04;;;;;;;18.57;12.67;;;12.50;99.90;;;;;;4779050;29;20125;-79
2022/05/25 06:00:30;;;;;;;18.67;12.03;;;12.60;99.90;;;;;;4793392;29;20541;-79
2022/05/25 06:02:56;;;;;;;17.63;11.80;;;12.80;99.90;;;;;;4774586;29;20042;-79
2022/05/25 06:05:21;;;;;;;16.87;11.93;;;12.90;99.90;;;;;;4804118;29;20047;-79
2022/05/25 06:07:47;;;;;;;17.00;11.43;;;13.00;99.90;;;;;;4796760;29;20173;-79
2022/05/25 06:10:13;;;;;;;15.83;11.57;;;13.10;99.90;;;;;;4800815;29;20066;-79
2022/05/25 06:12:39;;;;;;;16.57;11.63;;;13.20;99.90;;;;;;4772716;29;20546;-79
2022/05/25 06:20:35;;;;;;;15.43;11.70;;;13.50;99.90;;;;;;4809134;29;20088;-79
2022/05/25 06:23:02;;;;;;;15.80;11.63;;;13.60;99.90;;;;;;4785180;29;20059;-80
2022/05/25 06:25:28;;;;;;;16.07;11.70;;;13.70;99.90;;;;;;4788808;29;20515;-80
2022/05/25 06:27:54;;;;;;;13.73;10.53;;;13.90;99.90;;;;;;4774275;29;20089;-79
2022/05/25 06:30:21;;;;;;;17.33;11.50;;;14.00;99.90;;;;;;4790466;29;20046;-79
2022/05/25 06:32:46;;;;;;;18.07;11.10;;;14.20;99.90;;;;;;4788918;29;20042;-79
2022/05/25 06:35:13;;;;;;;15.97;11.60;;;14.30;99.90;;;;;;4760277;29;20046;-84
2022/05/25 06:37:39;;;;;;;14.97;11.37;;;14.30;99.90;;;;;;4789826;29;20066;-84
2022/05/25 06:40:05;;;;;;;13.23;10.90;;;14.40;99.90;;;;;;4767868;29;20055;-81
2022/05/25 06:42:31;;;;;;;14.17;11.03;;;14.60;99.90;;;;;;4770830;29;20082;-82
2022/05/25 06:44:57;;;;;;;16.90;10.57;;;14.60;99.90;;;;;;4799589;29;20086;-82
2022/05/25 06:47:23;;;;;;;15.90;10.27;;;14.70;99.90;;;;;;4786054;29;20084;-82
2022/05/25 06:49:53;;;;;;;13.53;9.63;;;14.80;99.90;;;;;;4784642;29;20058;-77
2022/05/25 06:52:18;;;;;;;18.07;11.13;;;14.90;99.90;;;;;;4771037;29;20051;-79
2022/05/25 06:54:44;;;;;;;15.00;10.87;;;15.10;99.90;;;;;;4755789;29;20579;-79
2022/05/25 06:57:10;;;;;;;12.77;9.90;;;15.20;99.90;;;;;;4784796;29;20066;-79
2022/05/25 06:59:36;;;;;;;14.00;10.00;;;15.20;99.90;;;;;;4756878;29;20058;-79
2022/05/25 07:02:02;;;;;;;14.27;9.80;;;15.40;99.90;;;;;;4783745;29;20051;-79
2022/05/25 07:04:28;;;;;;;15.23;9.80;;;15.50;99.90;;;;;;4786417;29;20140;-79
2022/05/25 07:06:54;;;;;;;15.10;9.93;;;15.50;99.90;;;;;;4769260;29;20058;-79
2022/05/25 07:09:19;;;;;;;17.25;10.52;;;15.60;99.90;;;;;;4769612;29;20118;-79
2022/05/25 07:11:52;;;;;;;12.98;10.43;;;15.60;99.90;;;;;;4770165;29;20074;-80
2022/05/25 07:14:18;;;;;;;14.75;10.90;;;15.70;99.90;;;;;;4770128;29;20047;-79
2022/05/25 07:16:43;;;;;;;12.43;8.68;;;15.80;99.90;;;;;;4771428;29;20050;-80
2022/05/25 07:19:09;;;;;;;11.07;8.65;;;15.80;99.90;;;;;;4769351;29;20059;-79
2022/05/25 07:21:35;;;;;;;14.40;9.52;;;16.00;99.90;;;;;;4756809;29;20604;-80
2022/05/25 07:24:02;;;;;;;15.73;10.60;;;16.00;99.90;;;;;;4754942;29;20062;-79
2022/05/25 07:26:29;;;;;;;15.10;10.73;;;16.10;99.90;;;;;;4801967;29;20050;-80
2022/05/25 07:28:55;;;;;;;14.02;9.65;;;16.20;99.90;;;;;;4804200;29;20472;-80
2022/05/25 07:31:29;;;;;;;13.38;9.52;;;16.40;99.90;;;;;;4785001;29;20054;-80
2022/05/25 07:34:24;;;;;;;14.90;9.65;;;16.50;99.90;;;;;;4771213;29;20069;-79
2022/05/25 07:37:00;;;;;;;14.20;9.50;;;16.60;99.90;;;;;;4769538;29;20059;-79
2022/05/25 07:39:32;;;;;;;15.35;8.65;;;16.60;99.90;;;;;;4815342;29;20058;-78
2022/05/25 07:42:00;;;;;;;13.68;9.95;;;16.60;99.90;;;;;;4769483;29;20759;-79
2022/05/25 07:44:30;;;;;;;12.43;8.70;;;16.70;99.90;;;;;;4770233;29;20054;-79
2022/05/25 07:46:56;;;;;;;12.45;8.68;;;16.90;99.90;;;;;;4770490;29;20050;-78
2022/05/25 07:49:23;;;;;;;12.15;8.57;;;16.90;99.90;;;;;;4800733;29;20057;-79
2022/05/25 07:51:51;;;;;;;11.38;8.32;;;17.00;99.90;;;;;;4770949;29;20061;-78
2022/05/25 07:54:17;;;;;;;10.48;8.63;;;17.00;99.90;;;;;;4769824;29;20111;-78
2022/05/25 07:56:43;;;;;;;8.25;5.75;;;17.00;99.90;;;;;;4755344;29;20738;-78
2022/05/25 07:59:11;;;;;;;8.45;5.78;;;17.00;99.90;;;;;;4756228;29;20054;-78
2022/05/25 08:07:23;;;;;;;7.25;5.65;;;17.20;99.90;;;;;;4785050;29;20055;-79
2022/05/25 08:09:51;;;;;;;7.97;6.18;;;17.30;99.90;;;;;;4784187;29;20051;-78
2022/05/25 08:12:19;;;;;;;6.43;4.75;;;17.30;99.90;;;;;;4755203;29;20053;-78
2022/05/25 08:14:45;;;;;;;6.93;4.75;;;17.40;99.90;;;;;;4768839;29;20053;-78
2022/05/25 08:17:11;;;;;;;6.00;4.75;;;17.50;99.90;;;;;;4771195;29;20051;-78
2022/05/25 08:19:38;;;;;;;10.95;6.00;;;17.50;99.90;;;;;;4769104;29;20877;-78
2022/05/25 08:22:05;;;;;;;8.10;5.50;;;17.30;99.90;;;;;;4784932;29;20050;-79
2022/05/25 08:24:32;;;;;;;5.82;4.57;;;17.30;99.90;;;;;;4748782;29;20063;-78
2022/05/25 08:26:58;;;;;;;4.72;3.85;;;17.40;99.90;;;;;;4775685;29;20059;-78
2022/05/25 08:29:25;;;;;;;4.05;3.10;;;17.40;99.90;;;;;;4766606;29;20388;-78
2022/05/25 08:31:55;;;;;;;5.32;3.70;;;17.50;99.90;;;;;;4780191;29;20091;-78
2022/05/25 08:34:22;;;;;;;3.95;3.42;;;17.60;99.90;;;;;;4781635;29;20530;-79
2022/05/25 08:36:48;;;;;;;3.33;3.03;;;17.70;99.90;;;;;;4765779;29;20066;-79
2022/05/25 08:39:14;;;;;;;4.18;3.00;;;17.80;99.90;;;;;;4753553;29;20055;-78
2022/05/25 08:41:42;;;;;;;5.10;3.70;;;17.80;99.90;;;;;;4770374;29;20047;-78
2022/05/25 08:44:10;;;;;;;4.97;3.75;;;17.70;99.90;;;;;;4784419;29;20063;-78
2022/05/25 08:46:37;;;;;;;4.15;3.42;;;17.50;99.90;;;;;;4756243;29;20055;-78
2022/05/25 08:49:10;;;;;;;7.32;4.22;;;17.30;99.90;;;;;;4770355;29;20058;-78
2022/05/25 08:51:46;;;;;;;5.07;4.20;;;17.50;99.90;;;;;;4771417;29;20187;-77
2022/05/25 08:54:12;;;;;;;6.72;5.00;;;17.80;99.90;;;;;;4770726;29;20051;-76
2022/05/25 08:56:51;;;;;;;6.85;4.68;;;17.90;99.90;;;;;;4756131;29;20059;-76
2022/05/25 08:59:23;;;;;;;4.90;3.70;;;17.90;99.90;;;;;;4786299;29;20563;-75
2022/05/25 09:01:55;;;;;;;5.45;4.60;;;17.90;99.90;;;;;;4768799;29;20123;-75
2022/05/25 09:04:33;;;;;;;7.78;4.72;;;17.80;99.90;;;;;;4772056;29;20055;-75
2022/05/25 09:07:13;;;;;;;7.50;4.40;;;17.80;99.90;;;;;;4785372;29;20055;-78
2022/05/25 09:09:51;;;;;;;5.20;4.15;;;17.90;99.90;;;;;;4771379;29;20143;-80
2022/05/25 09:12:38;;;;;;;6.65;4.10;;;17.90;99.90;;;;;;4770632;29;20048;-79
2022/05/25 09:15:16;;;;;;;5.78;3.85;;;17.90;99.90;;;;;;4784569;29;20059;-79
2022/05/25 09:17:46;;;;;;;4.43;3.15;;;18.10;99.90;;;;;;4767847;29;20090;-80
2022/05/25 09:20:19;;;;;;;4.30;3.38;;;18.10;99.90;;;;;;4768329;29;20062;-79
2022/05/25 09:22:45;;;;;;;4.30;3.90;;;18.10;99.90;;;;;;4771554;29;20058;-78
2022/05/25 09:25:13;;;;;;;5.45;3.83;;;18.10;99.90;;;;;;4772855;29;20058;-81
2022/05/25 09:27:46;;;;;;;4.90;4.00;;;18.00;99.90;;;;;;4801542;29;20059;-79
2022/05/25 09:30:14;;;;;;;4.07;3.67;;;17.90;99.90;;;;;;4787233;29;20086;-79
2022/05/25 09:33:09;;;;;;;4.28;3.72;;;17.80;99.90;;;;;;4787221;29;20528;-79
2022/05/25 09:35:43;;;;;;;4.82;3.70;;;17.70;99.90;;;;;;4769456;29;20590;-78
2022/05/25 09:38:30;;;;;;;5.78;4.10;;;17.70;99.90;;;;;;4772187;29;20054;-85
2022/05/25 09:40:56;;;;;;;4.38;4.00;;;17.60;99.90;;;;;;4801824;29;20426;-78
2022/05/25 09:43:24;;;;;;;6.72;4.10;;;17.60;99.90;;;;;;4788815;29;20050;-78
2022/05/25 09:45:55;;;;;;;5.20;3.88;;;17.60;99.90;;;;;;4773291;29;20058;-77
2022/05/25 09:48:24;;;;;;;4.22;3.83;;;17.60;99.90;;;;;;4774066;29;20114;-78
2022/05/25 09:50:58;;;;;;;5.05;3.78;;;17.60;99.90;;;;;;4789491;29;20082;-78
2022/05/25 09:53:31;;;;;;;6.43;3.70;;;17.60;99.90;;;;;;4774248;29;20039;-80
2022/05/25 09:56:11;;;;;;;5.68;4.40;;;17.60;99.90;;;;;;4761112;29;20062;-80
2022/05/25 09:58:47;;;;;;;4.30;3.90;;;17.80;99.90;;;;;;4774109;29;20066;-79
2022/05/25 10:01:33;;;;;;;5.32;4.80;;;17.90;99.90;;;;;;4774968;29;20059;-79
2022/05/25 10:04:01;;;;;;;4.65;4.25;;;18.00;99.90;;;;;;4789958;29;20051;-79
2022/05/25 10:06:29;;;;;;;5.90;4.35;;;18.10;99.90;;;;;;4788418;29;20054;-79
2022/05/25 10:09:18;;;;;;;6.07;4.43;;;18.10;99.90;;;;;;4790644;29;20046;-79
2022/05/25 10:11:49;;;;;;;4.60;4.20;;;18.30;99.90;;;;;;4789116;29;20051;-78
2022/05/25 10:14:27;;;;;;;6.22;4.85;;;18.50;99.90;;;;;;4773917;29;20043;-77
2022/05/25 10:16:56;;;;;;;6.57;4.53;;;18.70;99.90;;;;;;4805601;29;20111;-77
2022/05/25 10:19:23;;;;;;;4.90;4.50;;;18.70;99.90;;;;;;4788308;29;20482;-79
2022/05/25 10:21:58;;;;;;;6.22;5.03;;;18.70;99.90;;;;;;4775999;29;20118;-79
2022/05/25 10:24:35;;;;;;;5.82;5.00;;;18.70;99.90;;;;;;4773934;29;20059;-79
2022/05/25 10:27:03;;;;;;;5.20;4.70;;;18.50;99.90;;;;;;4789761;29;20533;-79
2022/05/25 10:38:30;;;;;;;5.20;4.35;;;17.80;99.90;;;;;;4790024;29;20498;-80
2022/05/25 10:40:58;;;;;;;6.00;4.65;;;17.60;99.90;;;;;;4774079;29;20043;-80
2022/05/25 10:43:27;;;;;;;6.07;4.32;;;17.40;99.90;;;;;;4789564;29;20107;-80
2022/05/25 10:45:55;;;;;;;12.13;4.75;;;17.50;99.90;;;;;;4789194;29;20051;-79
2022/05/25 10:48:45;;;;;;;7.82;4.72;;;17.70;99.90;;;;;;4775299;29;20483;-79
2022/05/25 10:51:20;;;;;;;4.63;3.45;;;18.00;99.90;;;;;;4775179;29;20046;-80
2022/05/25 10:54:44;;;;;;;4.57;4.18;;;18.20;99.90;;;;;;4788414;29;20059;-79
2022/05/25 10:56:57;;;;;;;4.70;4.05;;;18.30;99.90;;;;;;4789948;29;20043;-79
2022/05/25 10:59:32;;;;;;;5.32;4.72;;;18.40;99.90;;;;;;4770580;29;20054;-80
2022/05/25 11:02:26;;;;;;;6.50;5.47;;;18.40;99.90;;;;;;4804178;29;20085;-79
2022/05/25 11:05:09;;;;;;;5.93;5.05;;;18.40;99.90;;;;;;4789124;29;20047;-80
2022/05/25 11:07:42;;;;;;;5.10;4.70;;;18.70;99.90;;;;;;4805382;29;20057;-83
2022/05/25 11:10:17;;;;;;;6.35;4.63;;;18.90;99.90;;;;;;4805149;29;20058;-82
2022/05/25 11:13:14;;;;;;;6.18;4.10;;;19.00;99.90;;;;;;4805153;29;20090;-81
2022/05/25 11:16:07;;;;;;;4.78;4.10;;;19.00;99.90;;;;;;4788710;29;20534;-78
2022/05/25 11:18:52;;;;;;;3.60;3.20;;;19.00;99.90;;;;;;4772833;29;20058;-77
2022/05/25 11:21:46;;;;;;;6.03;3.65;;;18.90;99.90;;;;;;4789742;29;20090;-77
2022/05/25 11:24:42;;;;;;;2.70;2.50;;;18.80;99.90;;;;;;4801348;29;20117;-76
2022/05/25 11:27:27;;;;;;;3.92;2.00;;;18.70;99.90;;;;;;4781956;29;20051;-77
2022/05/25 11:30:24;;;;;;;2.33;2.10;;;19.00;99.90;;;;;;4779018;29;20062;-79
2022/05/25 11:33:02;;;;;;;3.22;2.25;;;19.30;99.90;;;;;;4751624;29;20051;-77
2022/05/25 11:36:08;;;;;;;3.20;2.40;;;19.50;99.90;;;;;;4772919;29;20101;-79
2022/05/25 11:39:00;;;;;;;3.80;3.03;;;19.60;99.90;;;;;;4752600;29;20416;-77
2022/05/25 11:41:42;;;;;;;4.28;3.20;;;19.60;99.90;;;;;;4787819;29;20050;-79
2022/05/25 11:44:17;;;;;;;3.28;2.40;;;19.50;99.90;;;;;;4759534;29;20457;-79
2022/05/25 11:46:48;;;;;;;3.55;2.67;;;19.70;99.90;;;;;;4774350;29;20054;-78
2022/05/25 11:49:25;;;;;;;5.35;3.08;;;19.80;99.90;;;;;;4758442;29;20128;-77
2022/05/25 11:52:25;;;;;;;3.85;3.50;;;19.70;91.30;;;;;;4791286;29;20077;-85
2022/05/25 11:55:27;;;;;;;5.22;4.63;;;19.30;99.90;;;;;;4759004;29;20051;-79
2022/05/25 11:58:05;;;;;;;6.22;4.35;;;19.00;99.90;;;;;;4788787;29;20106;-78
2022/05/25 12:00:56;;;;;;;5.68;4.45;;;18.90;99.90;;;;;;4775283;29;20042;-78
2022/05/25 12:03:35;;;;;;;7.40;4.13;;;18.70;99.90;;;;;;4789980;29;20096;-78
2022/05/25 12:06:09;;;;;;;5.72;4.32;;;18.60;99.90;;;;;;4772764;29;20049;-78
2022/05/25 12:09:04;;;;;;;7.30;4.40;;;18.40;99.90;;;;;;4779596;29;20090;-77
2022/05/25 12:11:42;;;;;;;7.13;4.10;;;18.20;99.90;;;;;;4758950;29;20263;-78
2022/05/25 12:14:23;;;;;;;4.03;3.47;;;18.00;99.90;;;;;;4762669;29;20065;-78
2022/05/25 12:16:51;;;;;;;5.38;3.15;;;17.80;99.90;;;;;;4778303;29;20051;-76
2022/05/25 12:19:19;;;;;;;5.90;4.90;;;17.30;99.90;;;;;;4763159;29;20054;-77
2022/05/25 12:21:49;;;;;;;9.63;6.22;;;16.70;99.90;;;;;;4764946;29;20051;-77
2022/05/25 12:24:31;;;;;;;8.30;6.50;;;16.20;99.90;;;;;;4764058;29;20749;-77
2022/05/25 12:26:57;;;;;;;;;;;16.00;99.90;;;;;;4778970;29;20047;-77
2022/05/25 12:29:31;;;;;;;10.43;7.30;;;15.80;99.90;;;;;;4765277;29;20386;-77
2022/05/25 12:31:57;;;;;;;8.50;7.60;;;15.70;99.90;;;;;;4763221;29;20063;-77
2022/05/25 12:34:34;;;;;;;9.55;8.07;;;15.80;99.90;;;;;;4749370;29;20055;-77
2022/05/25 12:37:02;;;;;;;11.60;8.15;;;16.10;99.90;;;;;;4762972;29;20050;-77
2022/05/25 12:39:43;;;;;;;13.10;9.00;;;16.30;99.90;;;;;;4763842;29;20047;-78
2022/05/25 12:42:24;;;;;;;9.10;8.20;;;16.60;99.90;;;;;;4777712;29;21327;-78
2022/05/25 12:50:48;;;;;;;9.75;8.55;;;17.00;99.90;;;;;;4782297;29;20058;-78
2022/05/25 12:53:34;;;;;;;9.93;8.05;;;17.20;99.90;;;;;;4777586;29;20058;-78
2022/05/25 12:56:05;;;;;;;11.40;8.80;;;17.30;99.90;;;;;;4764636;29;20111;-78
2022/05/25 12:58:46;;;;;;;11.90;8.93;;;17.40;99.90;;;;;;4761566;29;20057;-78
2022/05/25 13:01:26;;;;;;;9.68;7.47;;;17.40;99.90;;;;;;4777943;29;20046;-78
2022/05/25 13:03:51;;;;;;;9.75;8.13;;;17.20;99.90;;;;;;4778611;29;20065;-79
2022/05/25 13:06:50;;;;;;;8.98;7.43;;;17.10;99.90;;;;;;4777012;29;20126;-78
2022/05/25 13:09:40;;;;;;;7.90;7.07;;;16.90;99.90;;;;;;4762305;29;20070;-78
2022/05/25 13:12:40;;;;;;;8.40;5.15;;;16.90;99.90;;;;;;4777725;29;20054;-78
2022/05/25 13:15:36;;;;;;;7.75;5.00;;;17.00;99.90;;;;;;4790697;29;20043;-78
2022/05/25 13:18:02;;;;;;;5.85;4.43;;;17.10;99.90;;;;;;4770848;29;20082;-78
2022/05/25 13:20:28;;;;;;;5.10;3.17;;;17.40;99.90;;;;;;4747923;29;20078;-78
2022/05/25 13:23:08;;;;;;;7.03;3.40;;;17.60;99.90;;;;;;4791950;29;20886;-77
2022/05/25 13:25:39;;;;;;;7.43;2.70;;;17.70;99.90;;;;;;4778297;29;20063;-79
2022/05/25 13:28:22;;;;;;;8.77;2.65;;;17.90;99.90;;;;;;4779135;29;20061;-78
2022/05/25 13:31:20;;;;;;;5.53;2.15;;;18.00;99.90;;;;;;4765325;29;20058;-78
2022/05/25 13:33:46;;;;;;;5.53;1.95;;;18.10;99.90;;;;;;4774962;29;20149;-79
2022/05/25 13:36:22;;;;;;;1.75;1.60;;;18.40;99.90;;;;;;4751651;29;20054;-78